createdAt,value
2022-12-29T00:01:14.118Z,3.53
2022-12-29T00:03:44.040Z,4.13
2022-12-29T00:06:12.568Z,3.63
2022-12-29T00:08:43.984Z,3.50
2022-12-29T00:11:14.164Z,3.53
2022-12-29T00:14:00.132Z,4.50
2022-12-29T00:16:29.273Z,3.83
2022-12-29T00:18:59.719Z,4.05
2022-12-29T00:21:45.997Z,3.58
2022-12-29T00:24:33.866Z,3.95
2022-12-29T00:27:31.235Z,3.85
2022-12-29T00:30:17.314Z,4.15
2022-12-29T00:33:04.107Z,3.90
2022-12-29T00:35:38.051Z,3.95
2022-12-29T00:38:27.057Z,4.60
2022-12-29T00:41:12.540Z,4.07
2022-12-29T00:43:58.526Z,3.90
2022-12-29T00:46:26.992Z,3.80
2022-12-29T00:49:13.087Z,3.72
2022-12-29T00:51:44.206Z,4.05
2022-12-29T00:54:12.896Z,3.90
2022-12-29T00:56:42.886Z,4.03
2022-12-29T00:59:12.560Z,3.75
2022-12-29T01:01:41.563Z,3.90
2022-12-29T01:04:10.874Z,4.63
2022-12-29T01:06:40.551Z,4.03
2022-12-29T01:09:28.416Z,3.80
2022-12-29T01:11:57.170Z,4.25
2022-12-29T01:14:26.034Z,4.28
2022-12-29T01:16:54.536Z,4.03
2022-12-29T01:19:23.294Z,4.10
2022-12-29T01:21:52.143Z,4.63
2022-12-29T01:24:23.445Z,4.28
2022-12-29T01:26:52.246Z,4.18
2022-12-29T01:29:20.688Z,4.15
2022-12-29T01:31:50.579Z,4.60
2022-12-29T01:34:19.801Z,4.57
2022-12-29T01:36:48.338Z,4.57
2022-12-29T01:39:17.164Z,4.65
2022-12-29T01:41:47.164Z,4.37
2022-12-29T01:44:50.006Z,4.57
2022-12-29T01:47:24.958Z,4.32
2022-12-29T01:49:56.042Z,4.05
2022-12-29T01:52:26.781Z,4.70
2022-12-29T01:54:58.184Z,4.88
2022-12-29T01:57:31.871Z,4.13
2022-12-29T02:00:04.357Z,4.45
2022-12-29T02:02:34.284Z,4.25
2022-12-29T02:05:06.899Z,4.22
2022-12-29T02:07:36.298Z,4.47
2022-12-29T02:10:05.490Z,5.20
2022-12-29T02:12:35.867Z,4.85
2022-12-29T02:15:06.582Z,4.85
2022-12-29T02:17:53.531Z,4.20
2022-12-29T02:21:00.103Z,4.40
2022-12-29T02:23:49.816Z,4.40
2022-12-29T02:26:48.462Z,4.68
2022-12-29T02:29:53.369Z,3.92
2022-12-29T02:32:31.499Z,4.10
2022-12-29T02:35:07.553Z,4.00
2022-12-29T02:37:44.192Z,4.10
2022-12-29T02:40:25.260Z,3.78
2022-12-29T02:43:02.037Z,3.63
2022-12-29T02:45:38.645Z,3.33
2022-12-29T02:48:17.181Z,3.90
2022-12-29T02:50:55.078Z,3.97
2022-12-29T02:53:44.696Z,3.70
2022-12-29T02:56:12.185Z,3.63
2022-12-29T02:58:40.830Z,3.40
2022-12-29T03:01:34.914Z,3.80
2022-12-29T03:04:21.557Z,3.90
2022-12-29T03:06:59.032Z,3.60
2022-12-29T03:09:38.344Z,3.85
2022-12-29T03:12:16.987Z,3.63
2022-12-29T03:15:17.761Z,3.92
2022-12-29T03:17:54.673Z,3.83
2022-12-29T03:20:28.517Z,3.97
2022-12-29T03:23:02.464Z,3.42
2022-12-29T03:25:33.734Z,4.05
2022-12-29T03:28:05.982Z,4.03
2022-12-29T03:30:37.834Z,3.47
2022-12-29T03:33:11.656Z,3.35
2022-12-29T03:35:44.514Z,3.83
2022-12-29T03:38:19.023Z,3.78
2022-12-29T03:40:51.778Z,3.30
2022-12-29T03:43:20.947Z,3.72
2022-12-29T03:45:49.576Z,3.78
2022-12-29T03:48:18.128Z,3.40
2022-12-29T03:50:48.296Z,3.45
2022-12-29T03:53:16.690Z,3.33
2022-12-29T03:55:45.084Z,3.25
2022-12-29T03:58:14.092Z,4.10
2022-12-29T04:00:42.801Z,3.53
2022-12-29T04:03:11.689Z,2.88
2022-12-29T04:05:40.475Z,3.53
2022-12-29T04:08:10.715Z,2.83
2022-12-29T04:10:39.616Z,3.42
2022-12-29T04:13:08.168Z,3.30
2022-12-29T04:15:36.704Z,3.50
2022-12-29T04:18:05.269Z,3.60
2022-12-29T04:20:51.229Z,3.67
2022-12-29T04:23:21.081Z,3.20
2022-12-29T04:28:18.742Z,3.10
2022-12-29T04:30:48.145Z,2.95
2022-12-29T04:33:16.833Z,3.72
2022-12-29T04:35:47.635Z,3.10
2022-12-29T04:38:16.256Z,3.15
2022-12-29T04:40:47.371Z,2.67
2022-12-29T04:43:16.451Z,2.65
2022-12-29T04:45:47.478Z,3.22
2022-12-29T04:48:16.114Z,3.00
2022-12-29T04:50:44.671Z,3.03
2022-12-29T04:53:13.089Z,3.15
2022-12-29T04:55:41.639Z,3.10
2022-12-29T04:58:14.145Z,3.00
2022-12-29T05:00:45.995Z,2.50
2022-12-29T05:03:14.719Z,3.22
2022-12-29T05:05:43.341Z,2.85
2022-12-29T05:08:12.192Z,3.03
2022-12-29T05:10:40.740Z,2.83
2022-12-29T05:13:10.883Z,3.13
2022-12-29T05:15:39.588Z,3.35
2022-12-29T05:18:08.311Z,3.22
2022-12-29T05:20:36.842Z,3.22
2022-12-29T05:23:05.283Z,3.58
2022-12-29T05:25:34.152Z,3.15
2022-12-29T05:28:02.592Z,3.20
2022-12-29T05:30:32.697Z,3.22
2022-12-29T05:33:01.184Z,3.38
2022-12-29T05:35:29.758Z,3.88
2022-12-29T05:37:58.208Z,3.22
2022-12-29T05:40:26.649Z,3.10
2022-12-29T05:42:55.501Z,2.90
2022-12-29T05:45:23.893Z,2.97
2022-12-29T05:47:53.670Z,3.28
2022-12-29T05:50:22.123Z,3.00
2022-12-29T05:52:50.573Z,3.30
2022-12-29T05:55:19.195Z,3.15
2022-12-29T05:57:47.834Z,3.40
2022-12-29T06:00:17.165Z,3.00
2022-12-29T06:02:45.844Z,3.15
2022-12-29T06:05:16.262Z,2.90
2022-12-29T06:07:45.654Z,3.08
2022-12-29T06:10:14.023Z,3.58
2022-12-29T06:12:42.659Z,3.10
2022-12-29T06:15:12.115Z,3.67
2022-12-29T06:17:40.851Z,3.10
2022-12-29T06:20:10.841Z,3.05
2022-12-29T06:22:40.639Z,3.45
2022-12-29T06:27:38.405Z,3.05
2022-12-29T06:30:07.710Z,2.57
2022-12-29T06:32:36.215Z,2.92
2022-12-29T06:35:04.705Z,3.55
2022-12-29T06:37:33.143Z,2.95
2022-12-29T06:40:03.907Z,3.08
2022-12-29T06:42:32.319Z,2.97
2022-12-29T06:45:01.700Z,2.97
2022-12-29T06:47:30.116Z,2.92
2022-12-29T06:49:58.524Z,3.00
2022-12-29T06:52:27.059Z,3.20
2022-12-29T06:54:55.544Z,2.90
2022-12-29T06:57:27.521Z,3.10
2022-12-29T06:59:57.526Z,3.10
2022-12-29T07:02:27.137Z,3.25
2022-12-29T07:04:55.639Z,3.17
2022-12-29T07:07:24.174Z,3.35
2022-12-29T07:09:52.648Z,3.00
2022-12-29T07:12:21.121Z,3.00
2022-12-29T07:14:50.941Z,2.78
2022-12-29T07:17:20.095Z,3.33
2022-12-29T07:19:48.496Z,3.10
2022-12-29T07:22:16.902Z,3.10
2022-12-29T07:24:45.707Z,3.92
2022-12-29T07:27:14.215Z,3.38
2022-12-29T07:29:42.681Z,3.30
2022-12-29T07:32:12.824Z,3.13
2022-12-29T07:34:41.534Z,3.20
2022-12-29T07:37:09.959Z,4.00
2022-12-29T07:39:38.383Z,3.10
2022-12-29T07:42:06.886Z,2.95
2022-12-29T07:44:35.646Z,3.42
2022-12-29T07:47:04.366Z,3.35
2022-12-29T07:49:34.184Z,3.00
2022-12-29T07:52:02.689Z,3.45
2022-12-29T07:54:31.152Z,3.22
2022-12-29T07:57:01.115Z,3.22
2022-12-29T07:59:29.620Z,3.42
2022-12-29T08:01:58.171Z,3.35
2022-12-29T08:04:26.731Z,3.92
2022-12-29T08:06:56.513Z,3.70
2022-12-29T08:09:24.939Z,4.00
2022-12-29T08:11:53.614Z,3.20
2022-12-29T08:14:22.456Z,3.60
2022-12-29T08:16:51.606Z,3.25
2022-12-29T08:19:20.125Z,5.00
2022-12-29T08:21:48.532Z,3.50
2022-12-29T08:24:18.346Z,3.80
2022-12-29T08:29:15.096Z,2.70
2022-12-29T08:31:43.942Z,2.90
2022-12-29T08:34:12.436Z,2.88
2022-12-29T08:36:41.169Z,2.63
2022-12-29T08:39:09.858Z,3.38
2022-12-29T08:41:40.285Z,2.95
2022-12-29T08:44:09.018Z,2.92
2022-12-29T08:46:37.488Z,3.13
2022-12-29T08:49:06.017Z,2.92
2022-12-29T08:51:34.454Z,3.13
2022-12-29T08:54:02.995Z,3.40
2022-12-29T08:56:31.528Z,2.88
2022-12-29T08:59:01.680Z,3.50
2022-12-29T09:01:31.392Z,3.55
2022-12-29T09:06:46.751Z,3.10
2022-12-29T09:09:15.446Z,3.20
2022-12-29T09:11:44.245Z,3.42
2022-12-29T09:14:14.638Z,3.10
2022-12-29T09:17:01.054Z,3.45
2022-12-29T09:19:29.602Z,3.38
2022-12-29T09:21:58.027Z,3.20
2022-12-29T09:24:26.476Z,3.10
2022-12-29T09:26:55.068Z,2.95
2022-12-29T09:29:25.111Z,3.20
2022-12-29T09:31:53.658Z,2.85
2022-12-29T09:34:22.273Z,3.20
2022-12-29T09:36:50.697Z,2.75
2022-12-29T09:39:19.342Z,2.95
2022-12-29T09:41:54.464Z,2.95
2022-12-29T09:44:33.321Z,2.65
2022-12-29T09:47:02.634Z,3.23
2022-12-29T09:49:36.072Z,2.67
2022-12-29T09:52:08.231Z,2.50
2022-12-29T09:54:49.801Z,3.28
2022-12-29T09:57:28.380Z,3.20
2022-12-29T10:00:05.340Z,2.72
2022-12-29T10:02:41.340Z,2.80
2022-12-29T10:05:22.242Z,2.20
2022-12-29T10:07:57.136Z,2.88
2022-12-29T10:10:36.877Z,2.50
2022-12-29T10:13:23.889Z,2.15
2022-12-29T10:16:02.760Z,2.90
2022-12-29T10:19:01.059Z,2.83
2022-12-29T10:21:43.197Z,2.13
2022-12-29T10:24:14.520Z,2.90
2022-12-29T10:26:45.047Z,2.42
2022-12-29T10:29:18.696Z,2.20
2022-12-29T10:31:52.751Z,2.90
2022-12-29T10:34:25.702Z,2.63
2022-12-29T10:37:00.477Z,2.60
2022-12-29T10:39:36.141Z,2.58
2022-12-29T10:42:13.551Z,3.10
2022-12-29T10:44:42.166Z,2.40
2022-12-29T10:47:17.845Z,2.28
2022-12-29T10:49:48.815Z,2.42
2022-12-29T10:52:19.760Z,2.50
2022-12-29T10:54:53.763Z,2.15
2022-12-29T10:57:28.284Z,2.45
2022-12-29T10:59:56.994Z,2.70
2022-12-29T11:02:55.606Z,2.40
2022-12-29T11:05:30.775Z,2.05
2022-12-29T11:08:02.253Z,2.45
2022-12-29T11:10:39.790Z,2.63
2022-12-29T11:13:14.635Z,2.50
2022-12-29T11:15:44.467Z,2.28
2022-12-29T11:20:51.948Z,2.22
2022-12-29T11:23:35.428Z,2.20
2022-12-29T11:26:19.376Z,2.50
2022-12-29T11:28:49.538Z,2.45
2022-12-29T11:31:19.652Z,2.65
2022-12-29T11:33:49.492Z,2.67
2022-12-29T11:36:21.149Z,2.65
2022-12-29T11:38:52.005Z,2.30
2022-12-29T11:41:25.939Z,2.30
2022-12-29T11:43:55.810Z,2.67
2022-12-29T11:48:59.229Z,2.30
2022-12-29T11:51:31.131Z,2.63
2022-12-29T11:54:03.148Z,2.45
2022-12-29T11:56:42.018Z,2.35
2022-12-29T11:59:38.870Z,2.28
2022-12-29T12:02:30.183Z,2.85
2022-12-29T12:05:06.425Z,2.72
2022-12-29T12:07:41.450Z,2.70
2022-12-29T12:10:19.685Z,2.63
2022-12-29T12:12:54.103Z,2.63
2022-12-29T12:15:26.713Z,2.70
2022-12-29T12:18:01.631Z,2.33
2022-12-29T12:20:40.788Z,2.40
2022-12-29T12:23:19.653Z,2.90
2022-12-29T12:25:57.981Z,2.75
2022-12-29T12:28:36.895Z,2.38
2022-12-29T12:31:11.249Z,2.60
2022-12-29T12:33:43.326Z,2.50
2022-12-29T12:36:28.339Z,3.72
2022-12-29T12:39:04.061Z,2.83
2022-12-29T12:41:43.916Z,2.78
2022-12-29T12:47:03.657Z,4.15
2022-12-29T12:52:25.060Z,3.20
2022-12-29T12:55:10.062Z,3.08
2022-12-29T12:57:50.201Z,2.75
2022-12-29T13:00:20.893Z,2.60
2022-12-29T13:03:07.028Z,2.60
2022-12-29T13:05:49.260Z,2.53
2022-12-29T13:08:47.805Z,2.40
2022-12-29T13:11:26.453Z,2.60
2022-12-29T13:14:18.136Z,2.25
2022-12-29T13:16:52.107Z,2.90
2022-12-29T13:19:27.785Z,2.50
2022-12-29T13:22:08.197Z,2.45
2022-12-29T13:24:48.364Z,2.38
2022-12-29T13:27:22.648Z,2.30
2022-12-29T13:30:01.802Z,2.67
2022-12-29T13:32:42.034Z,2.53
2022-12-29T13:35:22.373Z,2.25
2022-12-29T13:37:57.289Z,2.40
2022-12-29T13:40:30.715Z,2.22
2022-12-29T13:42:59.781Z,2.08
2022-12-29T13:45:33.739Z,2.67
2022-12-29T13:48:07.835Z,1.95
2022-12-29T13:50:40.322Z,2.80
2022-12-29T13:53:17.777Z,2.28
2022-12-29T13:55:54.016Z,2.42
2022-12-29T13:58:28.739Z,2.55
2022-12-29T14:01:02.664Z,2.75
2022-12-29T14:03:51.249Z,2.33
2022-12-29T14:06:26.409Z,2.65
2022-12-29T14:08:58.043Z,2.72
2022-12-29T14:11:35.008Z,2.92
2022-12-29T14:14:14.561Z,2.67
2022-12-29T14:16:43.818Z,3.00
2022-12-29T14:19:18.481Z,2.80
2022-12-29T14:21:54.827Z,2.85
2022-12-29T14:24:42.471Z,2.97
2022-12-29T14:27:59.750Z,2.85
2022-12-29T14:30:52.155Z,2.70
2022-12-29T14:33:21.302Z,2.60
2022-12-29T14:35:53.211Z,2.63
2022-12-29T14:38:28.187Z,2.42
2022-12-29T14:41:29.049Z,2.60
2022-12-29T14:44:01.664Z,3.08
2022-12-29T14:49:26.535Z,3.35
2022-12-29T14:52:05.550Z,3.05
2022-12-29T14:54:53.041Z,3.45
2022-12-29T14:57:32.865Z,2.85
2022-12-29T15:02:40.696Z,3.10
2022-12-29T15:05:27.152Z,2.95
2022-12-29T15:07:57.427Z,2.75
2022-12-29T15:10:28.042Z,3.10
2022-12-29T15:12:57.394Z,3.20
2022-12-29T15:15:28.249Z,2.97
2022-12-29T15:17:56.949Z,2.92
2022-12-29T15:20:29.416Z,3.00
2022-12-29T15:22:59.718Z,2.85
2022-12-29T15:25:28.437Z,2.50
2022-12-29T15:28:02.287Z,2.85
2022-12-29T15:30:31.132Z,3.30
2022-12-29T15:32:59.863Z,2.85
2022-12-29T15:35:33.174Z,2.90
2022-12-29T15:38:04.189Z,3.10
2022-12-29T15:40:34.566Z,3.00
2022-12-29T15:43:18.867Z,3.05
2022-12-29T15:45:47.442Z,2.60
2022-12-29T15:48:20.179Z,3.13
2022-12-29T15:50:50.803Z,2.75
2022-12-29T15:53:29.129Z,3.28
2022-12-29T15:56:03.667Z,4.13
2022-12-29T15:58:41.506Z,3.50
2022-12-29T16:01:19.994Z,3.13
2022-12-29T16:03:48.942Z,2.90
2022-12-29T16:06:33.604Z,3.83
2022-12-29T16:09:05.126Z,2.88
2022-12-29T16:11:37.739Z,3.63
2022-12-29T16:14:11.918Z,4.22
2022-12-29T16:16:43.501Z,3.17
2022-12-29T16:19:16.507Z,3.08
2022-12-29T16:21:47.583Z,3.03
2022-12-29T16:24:17.713Z,3.70
2022-12-29T16:26:51.224Z,2.75
2022-12-29T16:29:22.718Z,2.92
2022-12-29T16:32:00.940Z,2.90
2022-12-29T16:34:33.203Z,3.17
2022-12-29T16:37:04.581Z,3.05
2022-12-29T16:39:35.810Z,3.20
2022-12-29T16:42:38.145Z,4.07
2022-12-29T16:45:43.081Z,3.58
2022-12-29T16:48:21.386Z,4.18
2022-12-29T16:50:51.535Z,3.10
2022-12-29T16:53:26.280Z,3.50
2022-12-29T16:55:56.372Z,3.20
2022-12-29T16:58:28.833Z,3.38
2022-12-29T17:00:58.408Z,3.17
2022-12-29T17:03:34.113Z,3.60
2022-12-29T17:06:02.544Z,3.65
2022-12-29T17:08:42.500Z,4.05
2022-12-29T17:11:41.938Z,5.68
2022-12-29T17:14:22.350Z,6.43
2022-12-29T17:16:51.080Z,3.58
2022-12-29T17:19:21.235Z,3.72
2022-12-29T17:21:49.649Z,3.67
2022-12-29T17:24:21.191Z,4.18
2022-12-29T17:26:52.309Z,4.45
2022-12-29T17:29:27.211Z,2.78
2022-12-29T17:31:55.661Z,2.20
2022-12-29T17:34:24.754Z,2.20
2022-12-29T17:36:53.122Z,4.07
2022-12-29T17:39:22.959Z,3.80
2022-12-29T17:44:21.344Z,4.13
2022-12-29T17:46:50.293Z,3.90
2022-12-29T17:49:19.809Z,3.20
2022-12-29T17:51:48.745Z,2.60
2022-12-29T17:54:22.885Z,3.40
2022-12-29T17:56:51.526Z,4.15
2022-12-29T17:59:20.168Z,3.50
2022-12-29T18:01:49.880Z,2.90
2022-12-29T18:04:20.584Z,4.43
2022-12-29T18:06:48.981Z,3.78
2022-12-29T18:09:18.324Z,3.28
2022-12-29T18:11:48.179Z,4.28
2022-12-29T18:16:46.261Z,4.63
2022-12-29T18:19:15.153Z,4.88
2022-12-29T18:21:45.493Z,4.20
2022-12-29T18:24:16.009Z,4.40
2022-12-29T18:26:44.468Z,4.60
2022-12-29T18:29:14.200Z,3.95
2022-12-29T18:31:42.842Z,3.15
2022-12-29T18:34:16.272Z,3.50
2022-12-29T18:36:44.773Z,3.80
2022-12-29T18:39:13.498Z,3.85
2022-12-29T18:41:41.909Z,3.42
2022-12-29T18:44:15.114Z,4.32
2022-12-29T18:46:43.535Z,3.20
2022-12-29T18:49:11.942Z,3.25
2022-12-29T18:51:40.385Z,3.60
2022-12-29T18:54:20.322Z,3.33
2022-12-29T18:59:18.403Z,3.15
2022-12-29T19:04:16.197Z,4.47
2022-12-29T19:06:45.744Z,4.20
2022-12-29T19:09:14.143Z,4.10
2022-12-29T19:11:42.592Z,4.55
2022-12-29T19:14:18.417Z,4.10
2022-12-29T19:16:47.697Z,4.70
2022-12-29T19:19:17.554Z,4.53
2022-12-29T19:21:46.108Z,4.88
2022-12-29T19:24:14.550Z,4.93
2022-12-29T19:26:43.115Z,4.18
2022-12-29T19:29:16.029Z,5.05
2022-12-29T19:31:46.117Z,7.72
2022-12-29T19:34:15.832Z,6.10
2022-12-29T19:36:44.583Z,5.85
2022-12-29T19:39:13.668Z,6.53
2022-12-29T19:41:42.110Z,4.87
2022-12-29T19:44:10.612Z,4.68
2022-12-29T19:46:39.050Z,4.53
2022-12-29T19:49:08.867Z,4.30
2022-12-29T19:51:37.396Z,5.07
2022-12-29T19:54:05.974Z,4.28
2022-12-29T19:56:34.415Z,4.28
2022-12-29T19:59:02.827Z,4.07
2022-12-29T20:01:31.313Z,4.28
2022-12-29T20:04:02.783Z,4.55
2022-12-29T20:06:32.523Z,4.70
2022-12-29T20:09:02.640Z,4.38
2022-12-29T20:11:30.997Z,4.68
2022-12-29T20:13:59.454Z,4.38
2022-12-29T20:16:29.673Z,5.38
2022-12-29T20:18:58.080Z,4.93
2022-12-29T20:21:26.747Z,4.22
2022-12-29T20:23:56.680Z,4.53
2022-12-29T20:28:57.455Z,4.18
2022-12-29T20:31:28.145Z,5.78
2022-12-29T20:33:56.647Z,4.70
2022-12-29T20:36:27.703Z,3.83
2022-12-29T20:38:58.858Z,3.38
2022-12-29T20:41:27.823Z,3.85
2022-12-29T20:43:56.227Z,4.05
2022-12-29T20:46:32.543Z,3.35
2022-12-29T20:49:03.745Z,3.38
2022-12-29T20:51:59.239Z,3.22
2022-12-29T20:54:22.817Z,3.75
2022-12-29T20:56:52.272Z,3.28
2022-12-29T20:59:28.912Z,3.47
2022-12-29T21:01:58.481Z,3.08
2022-12-29T21:04:27.191Z,3.38
2022-12-29T21:06:56.216Z,3.00
2022-12-29T21:09:26.027Z,3.33
2022-12-29T21:11:54.552Z,3.38
2022-12-29T21:14:22.946Z,3.50
2022-12-29T21:16:51.426Z,3.83
2022-12-29T21:19:19.876Z,3.85
2022-12-29T21:21:48.287Z,3.60
2022-12-29T21:24:16.779Z,3.75
2022-12-29T21:26:46.877Z,4.30
2022-12-29T21:29:15.325Z,3.58
2022-12-29T21:31:45.792Z,4.13
2022-12-29T21:34:14.391Z,4.60
2022-12-29T21:36:42.959Z,4.00
2022-12-29T21:39:12.810Z,4.45
2022-12-29T21:44:28.283Z,4.47
2022-12-29T21:46:57.516Z,3.85
2022-12-29T21:49:27.770Z,4.60
2022-12-29T21:51:57.535Z,3.80
2022-12-29T21:57:34.739Z,5.72
2022-12-29T22:00:23.777Z,4.95
2022-12-29T22:03:16.489Z,4.40
2022-12-29T22:06:06.396Z,4.82
2022-12-29T22:08:52.384Z,4.60
2022-12-29T22:11:38.361Z,4.88
2022-12-29T22:14:06.855Z,4.80
2022-12-29T22:16:36.797Z,4.35
2022-12-29T22:21:33.721Z,4.47
2022-12-29T22:24:02.206Z,4.50
2022-12-29T22:26:30.689Z,4.20
2022-12-29T22:28:59.434Z,3.83
2022-12-29T22:31:30.199Z,3.92
2022-12-29T22:34:01.991Z,3.80
2022-12-29T22:36:31.322Z,4.03
2022-12-29T22:38:59.863Z,4.07
2022-12-29T22:41:28.492Z,4.10
2022-12-29T22:43:56.991Z,3.83
2022-12-29T22:46:25.511Z,3.40
2022-12-29T22:48:54.105Z,4.10
2022-12-29T22:51:24.330Z,3.75
2022-12-29T22:53:53.402Z,3.83
2022-12-29T22:56:22.118Z,3.90
2022-12-29T22:58:50.824Z,3.50
2022-12-29T23:01:22.425Z,3.97
2022-12-29T23:03:51.054Z,3.90
2022-12-29T23:06:19.622Z,3.47
2022-12-29T23:08:49.488Z,3.50
2022-12-29T23:13:46.790Z,3.30
2022-12-29T23:16:16.844Z,3.50
2022-12-29T23:18:46.773Z,3.50
2022-12-29T23:23:56.019Z,3.35
2022-12-29T23:26:28.003Z,3.22
2022-12-29T23:29:00.275Z,3.75
2022-12-29T23:31:30.834Z,3.50
2022-12-29T23:34:00.198Z,3.58
2022-12-29T23:36:29.217Z,2.90
2022-12-29T23:38:57.692Z,2.90
2022-12-29T23:41:28.060Z,2.90
2022-12-29T23:43:57.165Z,2.88
2022-12-29T23:46:27.602Z,2.70
2022-12-29T23:48:56.589Z,2.85
2022-12-29T23:51:24.989Z,3.07
2022-12-29T23:53:53.450Z,2.67
2022-12-29T23:56:24.144Z,2.80
2022-12-29T23:58:54.308Z,2.63
